createdAt,value
2022-10-31T00:02:04.775Z,48.43
2022-10-31T00:04:34.301Z,48.40
2022-10-31T00:07:03.769Z,51.00
2022-10-31T00:09:33.279Z,51.20
2022-10-31T00:12:02.757Z,54.50
2022-10-31T00:14:34.908Z,51.07
2022-10-31T00:17:04.421Z,44.27
2022-10-31T00:19:33.954Z,47.70
2022-10-31T00:22:03.455Z,47.30
2022-10-31T00:24:33.018Z,48.60
2022-10-31T00:27:02.495Z,47.10
2022-10-31T00:29:32.056Z,42.57
2022-10-31T00:32:04.048Z,44.97
2022-10-31T00:34:33.572Z,42.33
2022-10-31T00:37:03.098Z,47.73
2022-10-31T00:39:32.577Z,45.50
2022-10-31T00:42:02.055Z,51.73
2022-10-31T00:44:31.615Z,45.37
2022-10-31T00:47:03.708Z,46.00
2022-10-31T00:49:33.133Z,49.87
2022-10-31T00:52:02.620Z,47.13
2022-10-31T00:54:32.155Z,46.47
2022-10-31T00:57:01.953Z,52.63
2022-10-31T00:59:31.529Z,50.90
2022-10-31T01:02:01.193Z,47.07
2022-10-31T01:04:33.413Z,45.60
2022-10-31T01:07:02.895Z,46.73
2022-10-31T01:09:34.337Z,55.63
2022-10-31T01:12:03.831Z,48.17
2022-10-31T01:14:34.905Z,51.00
2022-10-31T01:17:04.384Z,46.37
2022-10-31T01:19:36.664Z,47.47
2022-10-31T01:22:06.173Z,56.67
2022-10-31T01:24:35.741Z,51.93
2022-10-31T01:27:05.492Z,56.33
2022-10-31T01:29:34.980Z,61.33
2022-10-31T01:32:04.473Z,50.93
2022-10-31T01:34:36.739Z,51.10
2022-10-31T01:37:06.334Z,52.00
2022-10-31T01:39:35.871Z,58.87
2022-10-31T01:42:05.548Z,51.93
2022-10-31T01:44:54.944Z,59.47
2022-10-31T01:47:30.596Z,60.70
2022-10-31T01:50:04.547Z,53.50
2022-10-31T01:52:37.033Z,59.80
2022-10-31T01:55:08.997Z,56.90
2022-10-31T01:57:39.280Z,64.43
2022-10-31T02:00:11.860Z,65.17
2022-10-31T02:02:41.713Z,60.43
2022-10-31T02:05:16.631Z,56.70
2022-10-31T02:07:48.225Z,57.90
2022-10-31T02:10:17.719Z,69.83
2022-10-31T02:12:48.456Z,61.33
2022-10-31T02:15:17.947Z,62.60
2022-10-31T02:17:47.552Z,65.30
2022-10-31T02:20:22.406Z,64.83
2022-10-31T02:23:27.636Z,60.20
2022-10-31T02:26:11.672Z,62.27
2022-10-31T02:28:54.082Z,58.80
2022-10-31T02:31:37.209Z,63.70
2022-10-31T02:34:14.832Z,66.43
2022-10-31T02:36:48.308Z,67.00
2022-10-31T02:39:24.662Z,80.27
2022-10-31T02:41:59.952Z,76.33
2022-10-31T02:44:33.269Z,69.27
2022-10-31T02:47:07.585Z,73.67
2022-10-31T02:49:40.536Z,66.57
2022-10-31T02:52:18.328Z,68.40
2022-10-31T02:54:48.397Z,77.27
2022-10-31T02:57:20.671Z,75.13
2022-10-31T02:59:52.877Z,70.70
2022-10-31T03:02:35.091Z,65.40
2022-10-31T03:05:23.152Z,82.57
2022-10-31T03:07:58.848Z,71.23
2022-10-31T03:10:36.740Z,77.80
2022-10-31T03:13:13.312Z,68.70
2022-10-31T03:15:45.567Z,72.77
2022-10-31T03:18:20.369Z,74.17
2022-10-31T03:20:53.176Z,86.60
2022-10-31T03:23:23.698Z,73.60
2022-10-31T03:25:54.745Z,75.80
2022-10-31T03:28:27.856Z,68.50
2022-10-31T03:30:57.548Z,69.53
2022-10-31T03:33:32.089Z,68.07
2022-10-31T03:36:03.503Z,66.63
2022-10-31T03:38:33.467Z,70.17
2022-10-31T03:41:04.354Z,62.20
2022-10-31T03:43:36.897Z,81.17
2022-10-31T03:46:06.673Z,80.17
2022-10-31T03:48:38.829Z,67.93
2022-10-31T03:51:11.558Z,81.57
2022-10-31T03:53:43.634Z,83.33
2022-10-31T03:56:16.476Z,76.27
2022-10-31T03:58:49.182Z,66.30
2022-10-31T04:01:20.798Z,67.50
2022-10-31T04:03:53.414Z,64.10
2022-10-31T04:06:25.447Z,65.33
2022-10-31T04:08:57.013Z,64.43
2022-10-31T04:11:31.176Z,75.23
2022-10-31T04:14:01.327Z,73.33
2022-10-31T04:16:30.844Z,77.33
2022-10-31T04:19:02.908Z,72.63
2022-10-31T04:21:33.172Z,81.40
2022-10-31T04:24:02.678Z,93.67
2022-10-31T04:26:32.120Z,100.17
2022-10-31T04:29:01.556Z,83.53
2022-10-31T04:31:31.240Z,89.17
2022-10-31T04:34:03.204Z,84.70
2022-10-31T04:36:32.661Z,81.93
2022-10-31T04:39:02.127Z,96.27
2022-10-31T04:41:31.645Z,102.60
2022-10-31T04:44:01.137Z,96.73
2022-10-31T04:46:30.967Z,132.73
2022-10-31T04:49:03.064Z,105.47
2022-10-31T04:51:32.524Z,104.73
2022-10-31T04:54:02.044Z,94.10
2022-10-31T04:56:31.544Z,113.40
2022-10-31T04:59:01.034Z,103.43
2022-10-31T05:01:30.839Z,102.33
2022-10-31T05:04:02.943Z,109.47
2022-10-31T05:06:32.437Z,69.97
2022-10-31T05:09:01.940Z,96.17
2022-10-31T05:11:31.430Z,96.07
2022-10-31T05:14:00.875Z,78.43
2022-10-31T05:16:30.356Z,90.93
2022-10-31T05:19:00.028Z,89.67
2022-10-31T05:21:32.065Z,107.60
2022-10-31T05:24:01.533Z,79.40
2022-10-31T05:26:31.040Z,80.63
2022-10-31T05:29:00.538Z,113.40
2022-10-31T05:31:30.068Z,102.37
2022-10-31T05:33:59.913Z,109.60
2022-10-31T05:36:31.977Z,80.80
2022-10-31T05:39:01.616Z,90.63
2022-10-31T05:41:31.062Z,150.87
2022-10-31T05:44:00.574Z,78.83
2022-10-31T05:46:30.081Z,89.27
2022-10-31T05:49:02.481Z,87.83
2022-10-31T05:51:34.812Z,129.33
2022-10-31T05:54:04.335Z,116.60
2022-10-31T05:56:33.812Z,87.83
2022-10-31T05:59:03.199Z,80.47
2022-10-31T06:01:32.721Z,97.50
2022-10-31T06:04:02.222Z,119.23
2022-10-31T06:06:34.209Z,93.73
2022-10-31T06:09:03.761Z,85.83
2022-10-31T06:11:33.263Z,83.60
2022-10-31T06:14:02.853Z,96.23
2022-10-31T06:16:32.288Z,80.60
2022-10-31T06:19:01.707Z,116.03
2022-10-31T06:21:33.743Z,111.07
2022-10-31T06:24:03.173Z,132.87
2022-10-31T06:26:32.616Z,126.20
2022-10-31T06:29:03.916Z,68.03
2022-10-31T06:31:33.930Z,73.93
2022-10-31T06:34:03.381Z,63.60
2022-10-31T06:36:35.455Z,79.53
2022-10-31T06:39:04.959Z,76.47
2022-10-31T06:41:34.427Z,88.43
2022-10-31T06:44:06.533Z,68.43
2022-10-31T06:46:38.383Z,75.97
2022-10-31T06:49:07.887Z,68.50
2022-10-31T06:51:40.000Z,73.43
2022-10-31T06:54:09.547Z,80.33
2022-10-31T06:56:38.984Z,85.17
2022-10-31T06:59:08.533Z,81.13
2022-10-31T07:01:38.043Z,72.27
2022-10-31T07:04:07.791Z,67.17
2022-10-31T07:06:39.908Z,66.53
2022-10-31T07:09:09.403Z,112.93
2022-10-31T07:11:38.874Z,97.80
2022-10-31T07:14:08.453Z,87.93
2022-10-31T07:16:37.853Z,97.47
2022-10-31T07:19:07.304Z,100.13
2022-10-31T07:21:36.819Z,95.13
2022-10-31T07:24:09.154Z,83.20
2022-10-31T07:26:38.676Z,141.23
2022-10-31T07:29:08.334Z,93.80
2022-10-31T07:31:37.755Z,140.60
2022-10-31T07:34:07.202Z,100.20
2022-10-31T07:36:36.656Z,98.90
2022-10-31T07:39:08.639Z,113.77
2022-10-31T07:41:38.041Z,79.03
2022-10-31T07:44:07.979Z,58.57
2022-10-31T07:46:37.484Z,109.73
2022-10-31T07:49:07.859Z,81.73
2022-10-31T07:51:37.301Z,70.67
2022-10-31T07:54:09.384Z,123.80
2022-10-31T07:56:38.875Z,91.60
2022-10-31T07:59:08.404Z,94.07
2022-10-31T08:01:37.892Z,87.57
2022-10-31T08:04:07.590Z,83.10
2022-10-31T08:06:37.096Z,57.30
2022-10-31T08:09:09.225Z,78.27
2022-10-31T08:11:38.692Z,47.93
2022-10-31T08:14:08.640Z,82.93
2022-10-31T08:16:38.115Z,65.77
2022-10-31T08:19:07.607Z,56.53
2022-10-31T08:21:37.109Z,71.80
2022-10-31T08:24:09.788Z,181.47
2022-10-31T08:26:39.290Z,180.37
2022-10-31T08:29:08.709Z,79.17
2022-10-31T08:31:41.887Z,64.90
2022-10-31T08:34:12.507Z,56.30
2022-10-31T08:36:43.299Z,42.80
2022-10-31T08:39:15.372Z,105.03
2022-10-31T08:41:44.861Z,52.87
2022-10-31T08:44:14.319Z,49.23
2022-10-31T08:46:43.747Z,54.87
2022-10-31T08:49:13.240Z,62.33
2022-10-31T08:51:42.743Z,77.83
2022-10-31T08:54:14.912Z,44.83
2022-10-31T08:56:44.321Z,49.27
2022-10-31T08:59:13.833Z,37.00
2022-10-31T09:01:43.450Z,30.60
2022-10-31T09:04:13.037Z,38.73
2022-10-31T09:06:50.492Z,28.93
2022-10-31T09:09:33.585Z,36.20
2022-10-31T09:12:03.112Z,33.63
2022-10-31T09:14:32.620Z,28.80
2022-10-31T09:17:02.107Z,33.03
2022-10-31T09:19:31.884Z,44.00
2022-10-31T09:22:01.324Z,46.07
2022-10-31T09:24:33.424Z,29.13
2022-10-31T09:27:02.903Z,33.47
2022-10-31T09:29:32.441Z,54.27
2022-10-31T09:32:01.861Z,32.47
2022-10-31T09:34:31.360Z,35.77
2022-10-31T09:37:00.820Z,33.90
2022-10-31T09:39:32.918Z,36.00
2022-10-31T09:42:18.464Z,60.37
2022-10-31T09:44:54.145Z,37.60
2022-10-31T09:47:30.839Z,33.77
2022-10-31T09:50:11.363Z,28.20
2022-10-31T09:52:43.518Z,33.23
2022-10-31T09:55:20.758Z,33.13
2022-10-31T09:57:50.492Z,26.93
2022-10-31T10:00:22.260Z,37.57
2022-10-31T10:02:55.365Z,38.33
2022-10-31T10:05:28.402Z,33.23
2022-10-31T10:08:03.833Z,33.27
2022-10-31T10:10:45.479Z,33.00
2022-10-31T10:13:41.713Z,27.93
2022-10-31T10:16:20.721Z,31.17
2022-10-31T10:19:00.305Z,30.23
2022-10-31T10:21:38.834Z,29.27
2022-10-31T10:24:21.722Z,35.57
2022-10-31T10:26:58.829Z,30.70
2022-10-31T10:29:35.771Z,35.93
2022-10-31T10:32:09.344Z,31.13
2022-10-31T10:34:43.549Z,31.40
2022-10-31T10:37:25.285Z,37.50
2022-10-31T10:39:57.846Z,34.37
2022-10-31T10:42:43.789Z,33.40
2022-10-31T10:45:31.667Z,36.10
2022-10-31T10:48:09.264Z,35.80
2022-10-31T10:50:42.626Z,32.00
2022-10-31T10:53:32.868Z,35.30
2022-10-31T10:56:08.899Z,28.03
2022-10-31T10:58:42.879Z,26.17
2022-10-31T11:04:06.304Z,32.37
2022-10-31T11:06:35.748Z,28.57
2022-10-31T11:09:12.543Z,28.13
2022-10-31T11:11:42.671Z,28.47
2022-10-31T11:14:19.464Z,29.20
2022-10-31T11:16:51.565Z,26.33
2022-10-31T11:19:23.372Z,27.87
2022-10-31T11:21:54.315Z,28.90
2022-10-31T11:24:27.245Z,23.67
2022-10-31T11:27:13.525Z,28.73
2022-10-31T11:29:45.799Z,25.53
2022-10-31T11:32:23.002Z,43.00
2022-10-31T11:34:54.697Z,23.83
2022-10-31T11:37:26.403Z,37.63
2022-10-31T11:39:58.288Z,40.23
2022-10-31T11:42:29.321Z,32.80
2022-10-31T11:45:09.864Z,28.93
2022-10-31T11:47:39.528Z,29.87
2022-10-31T11:50:14.424Z,27.93
2022-10-31T11:52:44.244Z,34.53
2022-10-31T11:55:35.189Z,31.40
2022-10-31T11:58:05.278Z,29.33
2022-10-31T12:00:41.920Z,28.90
2022-10-31T12:03:31.069Z,30.73
2022-10-31T12:06:04.348Z,35.03
2022-10-31T12:08:35.399Z,32.27
2022-10-31T12:11:11.079Z,31.63
2022-10-31T12:13:43.460Z,33.00
2022-10-31T12:16:23.117Z,30.40
2022-10-31T12:19:01.432Z,71.07
2022-10-31T12:21:52.742Z,55.83
2022-10-31T12:24:31.466Z,53.23
2022-10-31T12:27:12.018Z,33.13
2022-10-31T12:30:04.562Z,40.13
2022-10-31T12:32:44.521Z,40.90
2022-10-31T12:35:29.952Z,41.90
2022-10-31T12:38:11.787Z,28.90
2022-10-31T12:40:51.883Z,29.50
2022-10-31T12:43:35.896Z,27.97
2022-10-31T12:46:06.853Z,34.10
2022-10-31T12:49:20.140Z,24.67
2022-10-31T12:51:56.748Z,25.70
2022-10-31T12:54:37.194Z,26.67
2022-10-31T12:57:13.252Z,26.10
2022-10-31T12:59:46.957Z,25.73
2022-10-31T13:02:23.923Z,20.93
2022-10-31T13:04:59.778Z,23.20
2022-10-31T13:07:32.698Z,18.40
2022-10-31T13:10:07.099Z,20.23
2022-10-31T13:12:37.850Z,19.27
2022-10-31T13:15:16.006Z,23.30
2022-10-31T13:17:47.877Z,24.40
2022-10-31T13:20:24.858Z,25.83
2022-10-31T13:22:57.493Z,22.47
2022-10-31T13:25:28.721Z,27.23
2022-10-31T13:28:06.717Z,27.77
2022-10-31T13:30:37.624Z,25.00
2022-10-31T13:33:12.438Z,29.90
2022-10-31T13:35:47.459Z,37.17
2022-10-31T13:38:23.344Z,34.50
2022-10-31T13:40:57.927Z,34.90
2022-10-31T13:43:35.711Z,40.67
2022-10-31T13:46:05.153Z,35.70
2022-10-31T13:48:40.652Z,38.90
2022-10-31T13:51:14.229Z,37.33
2022-10-31T13:53:47.094Z,36.60
2022-10-31T13:56:23.234Z,42.37
2022-10-31T13:59:05.067Z,43.43
2022-10-31T14:01:35.590Z,38.10
2022-10-31T14:04:13.793Z,37.00
2022-10-31T14:06:54.908Z,48.23
2022-10-31T14:09:32.220Z,45.87
2022-10-31T14:12:04.269Z,53.80
2022-10-31T14:14:37.864Z,49.63
2022-10-31T14:17:07.320Z,74.60
2022-10-31T14:19:36.829Z,49.07
2022-10-31T14:22:25.823Z,47.33
2022-10-31T14:24:55.314Z,45.07
2022-10-31T14:27:46.850Z,41.80
2022-10-31T14:30:27.253Z,35.90
2022-10-31T14:32:58.812Z,38.20
2022-10-31T14:35:37.438Z,42.53
2022-10-31T14:38:25.058Z,42.50
2022-10-31T14:41:21.093Z,36.80
2022-10-31T14:44:19.847Z,42.07
2022-10-31T14:46:57.051Z,35.77
2022-10-31T14:49:37.453Z,40.20
2022-10-31T14:52:09.566Z,40.57
2022-10-31T14:54:44.119Z,46.27
2022-10-31T14:57:20.402Z,33.93
2022-10-31T14:59:57.859Z,46.00
2022-10-31T15:02:35.631Z,37.77
2022-10-31T15:05:07.574Z,87.43
2022-10-31T15:07:37.893Z,39.50
2022-10-31T15:10:23.953Z,56.60
2022-10-31T15:12:53.429Z,63.27
2022-10-31T15:15:24.971Z,87.97
2022-10-31T15:17:57.203Z,88.80
2022-10-31T15:20:30.167Z,56.13
2022-10-31T15:23:00.262Z,65.03
2022-10-31T15:25:36.520Z,55.07
2022-10-31T15:28:16.983Z,47.47
2022-10-31T15:30:54.445Z,45.83
2022-10-31T15:33:26.268Z,51.80
2022-10-31T15:36:00.111Z,54.73
2022-10-31T15:38:30.332Z,35.23
2022-10-31T15:41:04.809Z,40.63
2022-10-31T15:43:37.275Z,38.23
2022-10-31T15:46:07.108Z,33.53
2022-10-31T15:48:36.550Z,34.37
2022-10-31T15:51:06.262Z,43.37
2022-10-31T15:53:39.784Z,37.80
2022-10-31T15:56:14.931Z,35.13
2022-10-31T15:58:47.616Z,32.80
2022-10-31T16:01:25.813Z,32.43
2022-10-31T16:04:08.338Z,31.97
2022-10-31T16:06:38.348Z,33.67
2022-10-31T16:09:24.404Z,37.10
2022-10-31T16:11:56.629Z,37.67
2022-10-31T16:14:27.365Z,44.40
2022-10-31T16:16:58.352Z,65.93
2022-10-31T16:19:30.050Z,47.40
2022-10-31T16:22:06.488Z,48.23
2022-10-31T16:24:38.344Z,30.40
2022-10-31T16:27:19.682Z,32.07
2022-10-31T16:29:50.534Z,32.30
2022-10-31T16:32:36.851Z,36.27
2022-10-31T16:35:22.670Z,30.03
2022-10-31T16:37:52.135Z,26.40
2022-10-31T16:40:21.721Z,32.97
2022-10-31T16:42:53.983Z,36.63
2022-10-31T16:45:24.995Z,34.80
2022-10-31T16:47:55.021Z,36.83
2022-10-31T16:50:26.228Z,39.57
2022-10-31T16:55:48.525Z,41.83
2022-10-31T16:58:24.125Z,44.80
2022-10-31T17:00:53.988Z,39.83
2022-10-31T17:03:23.891Z,46.13
2022-10-31T17:05:53.391Z,41.50
2022-10-31T17:08:22.886Z,45.90
2022-10-31T17:10:54.988Z,42.93
2022-10-31T17:13:28.175Z,220.17
2022-10-31T17:15:59.688Z,41.00
2022-10-31T17:18:29.340Z,98.40
2022-10-31T17:20:59.886Z,64.87
2022-10-31T17:23:29.950Z,55.60
2022-10-31T17:25:59.473Z,69.07
2022-10-31T17:28:31.561Z,54.43
2022-10-31T17:31:01.758Z,43.80
2022-10-31T17:33:31.274Z,44.37
2022-10-31T17:36:00.740Z,43.80
2022-10-31T17:38:30.138Z,42.87
2022-10-31T17:40:59.589Z,45.90
2022-10-31T17:43:31.653Z,42.87
2022-10-31T17:46:02.338Z,51.10
2022-10-31T17:48:32.141Z,47.17
2022-10-31T17:51:03.307Z,46.93
2022-10-31T17:53:33.420Z,45.97
2022-10-31T17:56:04.425Z,41.17
2022-10-31T17:58:37.682Z,37.77
2022-10-31T18:01:11.042Z,37.63
2022-10-31T18:03:41.115Z,44.00
2022-10-31T18:06:11.311Z,35.80
2022-10-31T18:08:42.560Z,39.37
2022-10-31T18:11:14.723Z,34.93
2022-10-31T18:13:46.808Z,40.20
2022-10-31T18:16:18.891Z,46.20
2022-10-31T18:18:53.009Z,33.87
2022-10-31T18:21:22.667Z,35.70
2022-10-31T18:23:56.572Z,36.47
2022-10-31T18:26:26.826Z,49.37
2022-10-31T18:28:58.927Z,42.00
2022-10-31T18:31:28.315Z,45.77
2022-10-31T18:33:58.333Z,46.60
2022-10-31T18:36:28.305Z,42.70
2022-10-31T18:38:58.009Z,39.03
2022-10-31T18:41:27.590Z,38.23
2022-10-31T18:44:02.543Z,44.90
2022-10-31T18:46:31.989Z,40.03
2022-10-31T18:49:02.262Z,43.33
2022-10-31T18:51:32.185Z,40.53
2022-10-31T18:54:03.093Z,39.47
2022-10-31T18:56:34.171Z,43.87
2022-10-31T18:59:06.183Z,34.70
2022-10-31T19:01:36.150Z,36.67
2022-10-31T19:04:05.776Z,40.07
2022-10-31T19:06:35.339Z,37.97
2022-10-31T19:09:09.212Z,40.77
2022-10-31T19:11:39.747Z,40.00
2022-10-31T19:14:14.935Z,41.97
2022-10-31T19:16:44.608Z,45.43
2022-10-31T19:19:14.084Z,42.67
2022-10-31T19:21:43.571Z,44.23
2022-10-31T19:24:13.023Z,42.17
2022-10-31T19:26:42.503Z,38.30
2022-10-31T19:29:14.722Z,46.27
2022-10-31T19:31:44.248Z,39.27
2022-10-31T19:34:13.757Z,42.67
2022-10-31T19:36:43.463Z,44.03
2022-10-31T19:39:13.419Z,41.30
2022-10-31T19:41:42.905Z,39.20
2022-10-31T19:44:16.072Z,40.53
2022-10-31T19:46:54.180Z,40.80
2022-10-31T19:49:23.833Z,42.17
2022-10-31T19:51:54.071Z,45.03
2022-10-31T19:54:23.569Z,42.23
2022-10-31T19:56:53.047Z,36.60
2022-10-31T19:59:25.906Z,48.03
2022-10-31T20:01:55.407Z,43.70
2022-10-31T20:04:25.075Z,46.10
2022-10-31T20:06:54.802Z,39.47
2022-10-31T20:09:24.326Z,43.40
2022-10-31T20:11:53.800Z,43.50
2022-10-31T20:14:25.879Z,43.77
2022-10-31T20:16:56.287Z,49.87
2022-10-31T20:19:26.388Z,46.13
2022-10-31T20:21:56.005Z,42.27
2022-10-31T20:24:25.892Z,44.47
2022-10-31T20:26:55.331Z,48.80
2022-10-31T20:29:27.402Z,46.17
2022-10-31T20:31:57.290Z,43.93
2022-10-31T20:34:26.733Z,42.60
2022-10-31T20:36:56.226Z,42.77
2022-10-31T20:39:25.734Z,41.73
2022-10-31T20:41:55.208Z,51.43
2022-10-31T20:44:27.243Z,47.67
2022-10-31T20:46:56.696Z,42.67
2022-10-31T20:49:26.207Z,46.90
2022-10-31T20:51:55.731Z,47.67
2022-10-31T20:54:26.208Z,41.47
2022-10-31T20:56:55.655Z,43.57
2022-10-31T20:59:27.766Z,43.80
2022-10-31T21:01:57.407Z,43.43
2022-10-31T21:04:27.082Z,46.43
2022-10-31T21:06:56.539Z,41.50
2022-10-31T21:09:26.053Z,43.40
2022-10-31T21:11:55.544Z,42.30
2022-10-31T21:14:27.691Z,44.83
2022-10-31T21:16:57.127Z,51.90
2022-10-31T21:19:26.621Z,50.50
2022-10-31T21:21:56.132Z,41.33
2022-10-31T21:24:27.977Z,42.27
2022-10-31T21:26:57.633Z,50.03
2022-10-31T21:29:29.716Z,46.97
2022-10-31T21:31:59.174Z,157.83
2022-10-31T21:34:28.836Z,98.50
2022-10-31T21:36:58.314Z,80.83
2022-10-31T21:39:27.876Z,97.40
2022-10-31T21:41:57.419Z,93.97
2022-10-31T21:44:29.521Z,59.37
2022-10-31T21:46:58.966Z,56.30
2022-10-31T21:49:28.493Z,64.33
2022-10-31T21:51:58.028Z,67.13
2022-10-31T21:54:30.401Z,54.23
2022-10-31T21:57:00.993Z,55.30
2022-10-31T21:59:33.327Z,50.20
2022-10-31T22:02:02.863Z,61.40
2022-10-31T22:04:32.393Z,51.93
2022-10-31T22:07:01.880Z,54.53
2022-10-31T22:09:31.463Z,51.07
2022-10-31T22:12:01.355Z,65.50
2022-10-31T22:14:33.537Z,53.60
2022-10-31T22:17:03.100Z,53.47
2022-10-31T22:19:32.636Z,56.37
2022-10-31T22:22:02.103Z,47.70
2022-10-31T22:24:31.664Z,55.27
2022-10-31T22:27:01.094Z,53.40
2022-10-31T22:29:35.175Z,58.87
2022-10-31T22:32:04.622Z,51.57
2022-10-31T22:34:34.154Z,53.07
2022-10-31T22:37:03.758Z,59.20
2022-10-31T22:39:33.458Z,47.03
2022-10-31T22:42:02.931Z,49.80
2022-10-31T22:44:34.995Z,65.50
2022-10-31T22:47:04.436Z,50.47
2022-10-31T22:49:33.920Z,49.37
2022-10-31T22:52:03.517Z,57.07
2022-10-31T22:54:34.282Z,64.83
2022-10-31T22:57:03.936Z,54.30
2022-10-31T22:59:35.995Z,49.67
2022-10-31T23:02:08.577Z,52.97
2022-10-31T23:04:39.708Z,57.10
2022-10-31T23:07:12.332Z,51.80
2022-10-31T23:09:44.119Z,52.80
2022-10-31T23:12:26.148Z,59.47
2022-10-31T23:14:58.218Z,62.40
2022-10-31T23:17:27.673Z,55.17
2022-10-31T23:19:57.188Z,54.40
2022-10-31T23:22:26.693Z,58.03
2022-10-31T23:24:56.176Z,51.77
2022-10-31T23:27:24.326Z,58.03
2022-10-31T23:29:55.350Z,57.33
2022-10-31T23:32:29.485Z,49.87
2022-10-31T23:35:00.384Z,53.10
2022-10-31T23:37:33.479Z,49.77
2022-10-31T23:40:03.181Z,51.80
2022-10-31T23:42:32.649Z,49.23
2022-10-31T23:45:02.129Z,48.33
2022-10-31T23:47:34.199Z,52.57
2022-10-31T23:50:03.686Z,54.27
2022-10-31T23:52:33.148Z,50.50
2022-10-31T23:55:02.733Z,43.87
2022-10-31T23:57:32.192Z,46.03
